ADDS METAR Data INFO
IDs: Format: Raw Decoded Include TAF

Data at: 2258 UTC 21 Feb 2018

KGNT 212255Z AUTO 18014G25KT 10SM BKN065 BKN095 06/M06 A2998 RMK AO2 T00641061
KGNT 212235Z AUTO 15009G18KT 10SM BKN070 BKN080 09/M08 A2997 RMK AO2 T00911082
KGNT 212215Z AUTO 19014G22KT 10SM SCT060 BKN070 OVC090 09/M09 A2997 RMK AO2 T00861093
KGNT 212155Z AUTO 16011G19KT 10SM SCT065 BKN070 OVC080 09/M09 A2998 RMK AO2 T00891090
KGNT 212135Z AUTO 18012G17KT 10SM OVC065 07/M08 A2998 RMK AO2 T00711076
KGNT 212115Z AUTO 18010G20KT 10SM OVC065 08/M09 A2998 RMK AO2 T00781087
KGNT 212055Z AUTO 18015G20KT 10SM BKN065 OVC080 07/M09 A2999 RMK AO2 T00711087
KGNT 212035Z AUTO 17016G22KT 10SM BKN065 OVC080 07/M08 A3000 RMK AO2 T00721082
KGNT 212015Z AUTO 12012G18KT 10SM OVC065 06/M08 A3000 RMK AO2 T00571079
KGNT 211955Z AUTO 11011G18KT 10SM OVC065 06/M08 A3002 RMK AO2 T00601076
KGNT 211935Z AUTO 16012G16KT 10SM SCT032 BKN060 OVC070 06/M08 A3004 RMK AO2 T00571076
KGNT 211915Z AUTO 15016KT 10SM SCT049 BKN060 OVC070 05/M08 A3006 RMK AO2 T00511078
KGNT 211855Z AUTO 15013G20KT 10SM BKN049 OVC060 03/M08 A3006 RMK AO2 T00341084
KGNT 211835Z AUTO 15012G16KT 120V180 10SM OVC050 04/M08 A3008 RMK AO2 T00381082
KGNT 211815Z AUTO 13010G18KT 10SM SCT043 OVC049 03/M08 A3008 RMK AO2 T00321083
KGNT 211755Z AUTO 12012G17KT 10SM BKN043 OVC049 03/M08 A3009 RMK AO2 T00271084 10027 21101
KGNT 211735Z AUTO 14008KT 10SM OVC041 02/M08 A3009 RMK AO2 T00201080
KGNT 211715Z AUTO 16008KT 10SM BKN043 02/M08 A3009 RMK AO2 T00171076
KGNT 211655Z AUTO 15010KT 10SM CLR 01/M07 A3010 RMK AO2 T00081068
KGNT 211635Z AUTO 00000KT 10SM CLR M02/M07 A3010 RMK AO2 T10221075
KGNT 211615Z AUTO 32006KT 10SM SCT044 M04/M08 A3010 RMK AO2 T10411076
KGNT 211555Z AUTO 33006KT 10SM SCT044 M05/M08 A3012 RMK AO2 T10531081
KGNT 211535Z AUTO 32004KT 10SM CLR M07/M09 A3012 RMK AO2 T10661091
KGNT 211515Z AUTO 32006KT 10SM SCT019 SCT026 SCT038 M07/M09 A3012 RMK AO2 T10741095
KGNT 211455Z AUTO 27005KT 10SM SCT019 SCT026 BKN042 M08/M10 A3012 RMK AO2 T10851102
KGNT 211435Z AUTO 25006KT 10SM -SN SCT029 SCT037 OVC045 M09/M11 A3012 RMK AO2 T10951111
KGNT 211415Z AUTO 26005KT 10SM -SN OVC048 M10/M11 A3012 RMK AO2 T10991114
KGNT 211355Z AUTO 29005KT 10SM -SN OVC048 M10/M11 A3012 RMK AO2 T11001115
KGNT 211335Z AUTO 32003KT 7SM -SN OVC048 M10/M11 A3012 RMK AO2 T11001115
KGNT 211315Z AUTO 33004KT 5SM -SN SCT026 SCT032 OVC048 M09/M11 A3012 RMK AO2 T10931110
KGNT 211255Z AUTO 33003KT 5SM -SN SCT043 OVC050 M09/M11 A3012 RMK AO2 T10911110
KGNT 211235Z AUTO 28004KT 10SM -SN SCT039 OVC048 M09/M11 A3012 RMK AO2 T10901111
KGNT 210755Z AUTO 31004KT 10SM SCT036 SCT043 M09/M11 A3010 RMK AO2 T10891108
KGNT 210735Z AUTO 31004KT 10SM BKN036 BKN043 M10/M11 A3010 RMK AO2 T10961110
KGNT 210715Z AUTO 30003KT 10SM SCT043 M08/M09 A3010 RMK AO2 T10801095
KGNT 210655Z AUTO 32004KT 10SM SCT043 M07/M10 A3011 RMK AO2 T10711096 400121090
KGNT 210635Z AUTO 00000KT 10SM CLR M08/M11 A3011 RMK AO2 T10831111
KGNT 210615Z AUTO 00000KT 10SM CLR M07/M10 A3010 RMK AO2 T10711102
KGNT 210555Z AUTO 00000KT 10SM SCT038 M06/M10 A3010 RMK AO2 T10561097 10000 21056
KGNT 201515Z AUTO 00000KT 2 1/2SM -SN SCT032 SCT039 OVC046 M06/M10 A2997 RMK AO2 T10601096
KGNT 201455Z AUTO 00000KT 7SM SCT044 OVC060 M06/M10 A2996 RMK AO2 T10581099
KGNT 201435Z AUTO 00000KT 10SM OVC050 M06/M10 A2995 RMK AO2 T10601100
KGNT 201415Z AUTO 02003KT 10SM OVC050 M06/M10 A2994 RMK AO2 T10601102
KGNT 201355Z AUTO 31004KT 10SM SCT055 BKN065 OVC075 M06/M10 A2994 RMK AO2 T10601101
KGNT 201335Z AUTO 35006KT 10SM SCT035 SCT042 OVC060 M06/M10 A2993 RMK AO2 T10601101
KGNT 201315Z AUTO 35006KT 10SM BKN035 BKN042 OVC050 M06/M10 A2992 RMK AO2 T10601101
KGNT 201255Z AUTO 02006KT 290V080 10SM BKN035 OVC050 M06/M10 A2992 RMK AO2 T10601099
KGNT 201235Z AUTO 04008KT 10SM BKN035 BKN050 OVC075 M06/M10 A2991 RMK AO2 T10591102
KGNT 201215Z AUTO 36006KT 10SM SCT065 OVC075 M06/M10 A2990 RMK AO2 T10601099
KGNT 201155Z AUTO 01008KT 10SM SCT065 OVC075 M06/M10 A2989 RMK AO2 T10601101 11028 21060
KGNT 201135Z AUTO 36007KT 310V020 10SM SCT036 OVC065 M06/M10 A2989 RMK AO2 T10571099
KGNT 201115Z AUTO 36009KT 10SM SCT065 OVC075 M06/M10 A2988 RMK AO2 T10571100